Time;durP1;ratioP1;P1;durP2;ratioP2;P2;SDS_P1;SDS_P2;PMS_P1;PMS_P2;Temp;Humidity;BMP_temperature;BMP_pressure;BME280_temperature;BME280_humidity;BME280_pressure;Samples;Min_cycle;Max_cycle;Signal;HPM_P1;HPM_P2
2021/06/16 00:01:45;;;;;;;11.10;9.90;;;;;;;17.67;72.63;100677.59;22386;1161;4025985;-67
2021/06/16 00:03:56;;;;;;;15.20;9.10;;;;;;;17.68;72.12;100673.81;23886;1161;3126221;-68
2021/06/16 00:06:03;;;;;;;11.80;8.80;;;;;;;17.70;72.33;100677.14;23884;1161;3126293;-68
2021/06/16 00:08:12;;;;;;;13.80;9.80;;;;;;;17.65;72.55;100669.64;23902;1161;3126300;-66
2021/06/16 00:10:23;;;;;;;12.10;9.30;;;;;;;17.62;72.75;100677.45;23889;1161;3126136;-66
2021/06/16 00:12:29;;;;;;;;;;;;;;;17.60;72.43;100690.52;23805;1159;3126016;-66
2021/06/16 00:14:38;;;;;;;12.70;8.40;;;;;;;17.62;71.99;100682.92;23902;1159;3126403;-66
2021/06/16 00:16:48;;;;;;;13.70;8.60;;;;;;;17.61;72.07;100681.23;23885;1158;3126439;-66
2021/06/16 00:18:55;;;;;;;10.30;7.80;;;;;;;17.60;71.73;100685.05;23884;1160;3126992;-68
2021/06/16 00:21:03;;;;;;;10.30;7.80;;;;;;;17.59;72.02;100688.84;22369;1161;4025937;-68
2021/06/16 00:23:11;;;;;;;10.50;8.10;;;;;;;17.56;72.02;100687.40;23889;1159;3125686;-68
2021/06/16 00:25:21;;;;;;;11.50;8.30;;;;;;;17.55;71.46;100682.17;23891;1160;3125351;-69
2021/06/16 00:27:32;;;;;;;11.80;8.50;;;;;;;17.59;71.48;100678.75;23897;1159;3126726;-68
2021/06/16 00:29:39;;;;;;;11.80;8.60;;;;;;;17.58;71.44;100676.23;23882;1160;3126646;-66
2021/06/16 00:31:47;;;;;;;11.80;8.60;;;;;;;17.57;71.43;100674.58;22375;1159;4025573;-66
2021/06/16 00:33:54;;;;;;;13.40;9.10;;;;;;;17.52;71.58;100674.40;23916;1160;3126883;-67
2021/06/16 00:36:02;;;;;;;13.40;9.10;;;;;;;17.43;71.66;100679.33;22361;1159;4026756;-67
2021/06/16 00:38:10;;;;;;;12.30;8.30;;;;;;;17.39;71.76;100686.29;23874;1159;3126269;-66
2021/06/16 00:40:23;;;;;;;12.30;8.30;;;;;;;17.33;72.21;100680.92;22376;1160;4026574;-67
2021/06/16 00:42:30;;;;;;;12.00;8.40;;;;;;;17.33;71.83;100684.45;23930;1159;3126613;-68
2021/06/16 00:44:38;;;;;;;11.90;8.60;;;;;;;17.29;71.89;100690.61;23883;1160;3125623;-70
2021/06/16 00:46:49;;;;;;;10.40;8.20;;;;;;;17.20;72.08;100690.06;23894;1160;3126592;-69
2021/06/16 00:48:56;;;;;;;9.80;8.20;;;;;;;17.16;72.53;100688.86;23894;1160;3126021;-69
2021/06/16 00:51:07;;;;;;;12.90;8.70;;;;;;;17.14;72.22;100687.42;23899;1160;3125488;-69
2021/06/16 00:53:17;;;;;;;10.30;8.20;;;;;;;17.10;72.43;100687.02;23897;1160;3126055;-67
2021/06/16 00:55:26;;;;;;;10.00;8.10;;;;;;;17.05;72.34;100687.70;23886;1160;3126857;-65
2021/06/16 00:57:34;;;;;;;13.50;8.80;;;;;;;17.04;72.29;100680.56;23898;1160;3126769;-68
2021/06/16 00:59:56;;;;;;;11.50;8.30;;;;;;;17.00;72.38;100676.60;23902;1158;3126748;-68
2021/06/16 01:02:05;;;;;;;11.80;8.90;;;;;;;16.97;72.82;100677.08;23880;1160;3126128;-69
2021/06/16 01:04:16;;;;;;;11.60;9.00;;;;;;;16.97;72.65;100685.27;23908;1160;3126769;-67
2021/06/16 01:06:29;;;;;;;9.40;8.40;;;;;;;16.96;72.35;100686.31;23880;1160;3126579;-67
2021/06/16 01:08:47;;;;;;;11.70;8.90;;;;;;;16.91;72.75;100686.16;23866;1160;3126024;-67
2021/06/16 01:11:01;;;;;;;11.20;8.50;;;;;;;16.84;72.84;100692.70;23881;1159;3125552;-67
2021/06/16 01:13:14;;;;;;;;;;;;;;;16.77;73.05;100690.05;23779;1160;3126240;-66
2021/06/16 01:15:25;;;;;;;10.50;8.70;;;;;;;16.78;72.83;100697.19;23910;1159;3125841;-66
2021/06/16 01:17:41;;;;;;;12.90;9.60;;;;;;;16.77;73.03;100694.67;23883;1159;3126112;-67
2021/06/16 01:20:24;;;;;;;13.00;9.20;;;;;;;16.72;72.76;100698.08;23888;1160;3126458;-66
2021/06/16 01:22:51;;;;;;;12.30;9.20;;;;;;;16.67;73.39;100697.06;23895;1160;3126652;-67
2021/06/16 01:25:01;;;;;;;12.40;8.90;;;;;;;16.67;73.17;100689.72;23905;1160;3125978;-66
2021/06/16 01:27:09;;;;;;;11.50;9.30;;;;;;;16.66;73.06;100688.05;23878;1160;3125262;-66
2021/06/16 01:29:22;;;;;;;13.40;10.50;;;;;;;16.67;73.30;100691.61;23880;1159;3126595;-69
2021/06/16 01:31:32;;;;;;;16.00;9.60;;;;;;;16.64;73.27;100687.44;23863;1160;3125964;-69
2021/06/16 01:33:40;;;;;;;11.20;9.40;;;;;;;16.60;73.52;100694.38;23882;1159;3125546;-69
2021/06/16 01:35:51;;;;;;;11.70;8.80;;;;;;;16.61;73.44;100690.60;23893;1160;3126278;-68
2021/06/16 01:37:59;;;;;;;12.60;9.10;;;;;;;16.60;73.32;100688.92;23888;1160;3126413;-67
2021/06/16 01:40:10;;;;;;;11.60;9.40;;;;;;;16.57;73.45;100685.79;23886;1160;3125778;-67
2021/06/16 01:42:23;;;;;;;12.00;9.20;;;;;;;16.48;73.64;100686.03;23884;1160;3125840;-67
2021/06/16 01:44:32;;;;;;;11.00;9.30;;;;;;;16.41;73.83;100695.32;23906;1160;3126227;-67
2021/06/16 01:46:45;;;;;;;10.30;8.60;;;;;;;16.35;73.56;100697.03;23896;1159;3126353;-67
2021/06/16 01:48:53;;;;;;;11.70;9.00;;;;;;;16.30;73.61;100704.20;23871;1159;3125747;-67
2021/06/16 01:51:02;;;;;;;12.90;8.50;;;;;;;16.22;74.04;100705.30;23891;1160;3126772;-67
2021/06/16 01:53:11;;;;;;;10.70;8.90;;;;;;;16.18;74.44;100706.78;23865;1160;3126020;-67
2021/06/16 01:55:20;;;;;;;11.10;7.80;;;;;;;16.10;74.34;100714.37;23890;1160;3125898;-67
2021/06/16 01:57:39;;;;;;;10.10;6.40;;;;;;;15.96;73.75;100720.96;23877;1159;3125783;-67
2021/06/16 01:59:49;;;;;;;8.70;5.70;;;;;;;15.89;73.08;100721.82;23885;1158;3126454;-67
2021/06/16 02:01:57;;;;;;;5.80;4.80;;;;;;;15.80;73.14;100730.44;23903;1159;3126704;-67
2021/06/16 02:04:05;;;;;;;5.90;4.90;;;;;;;15.75;72.60;100736.54;23898;1160;3126266;-69
2021/06/16 02:06:14;;;;;;;5.60;4.90;;;;;;;15.69;72.33;100729.22;23872;1159;3126080;-69
2021/06/16 02:08:26;;;;;;;5.80;4.00;;;;;;;15.65;71.88;100730.72;23913;1159;3125693;-67
2021/06/16 02:10:37;;;;;;;6.60;3.90;;;;;;;15.63;71.65;100738.23;23882;1161;3125936;-67
2021/06/16 02:12:49;;;;;;;5.30;3.60;;;;;;;15.55;71.25;100746.64;23889;1160;3125709;-67
2021/06/16 02:15:06;;;;;;;5.80;3.30;;;;;;;15.50;70.75;100742.88;23890;1160;3126167;-67
2021/06/16 02:17:20;;;;;;;6.60;3.60;;;;;;;15.54;70.71;100747.71;23915;1159;3126714;-67
2021/06/16 02:19:32;;;;;;;6.90;3.40;;;;;;;15.56;70.36;100742.88;23919;1160;3125407;-70
2021/06/16 02:21:41;;;;;;;6.10;3.50;;;;;;;15.55;70.01;100749.37;23901;1161;3125446;-70
2021/06/16 02:23:50;;;;;;;4.30;3.30;;;;;;;15.53;69.84;100754.20;23890;1160;3126666;-69
2021/06/16 02:25:59;;;;;;;7.60;3.40;;;;;;;15.52;69.64;100747.06;23894;1159;3126573;-69
2021/06/16 02:28:07;;;;;;;5.70;3.20;;;;;;;15.52;69.81;100749.79;23868;1160;3125879;-67
2021/06/16 02:30:18;;;;;;;5.10;3.50;;;;;;;15.51;69.58;100752.73;23883;1160;3126131;-68
2021/06/16 02:32:26;;;;;;;4.20;3.30;;;;;;;15.48;69.71;100754.00;23894;1159;3126190;-67
2021/06/16 02:34:34;;;;;;;5.30;3.40;;;;;;;15.49;69.57;100752.97;23873;1160;3126154;-69
2021/06/16 02:36:45;;;;;;;5.30;3.70;;;;;;;15.52;69.60;100757.95;23868;1160;3126770;-69
2021/06/16 02:38:58;;;;;;;5.20;3.60;;;;;;;15.50;69.49;100754.62;23877;1159;3126256;-67
2021/06/16 02:41:12;;;;;;;6.80;3.70;;;;;;;15.52;69.31;100755.23;23901;1160;3126762;-67
2021/06/16 02:43:22;;;;;;;7.60;4.10;;;;;;;15.51;69.67;100756.30;23902;1160;3126450;-69
2021/06/16 02:45:31;;;;;;;7.70;3.80;;;;;;;15.57;69.74;100763.63;23897;1160;3126567;-69
2021/06/16 02:47:44;;;;;;;7.40;3.80;;;;;;;15.55;69.92;100765.70;23880;1159;3126096;-70
2021/06/16 02:49:56;;;;;;;8.00;3.80;;;;;;;15.58;69.83;100767.16;23902;1159;3125552;-69
2021/06/16 02:52:04;;;;;;;;;;;;;;;15.61;69.39;100761.30;23811;1159;3125693;-70
2021/06/16 02:54:19;;;;;;;4.60;3.80;;;;;;;15.62;69.55;100761.09;23895;1159;3126765;-69
2021/06/16 02:56:27;;;;;;;6.90;3.50;;;;;;;15.64;69.68;100761.71;23886;1159;3125667;-70
2021/06/16 02:58:40;;;;;;;6.50;3.40;;;;;;;15.71;69.57;100753.53;23867;1159;3125980;-70
2021/06/16 03:01:02;;;;;;;7.60;3.60;;;;;;;15.68;69.10;100765.70;23896;1158;3126515;-70
2021/06/16 03:03:10;;;;;;;9.00;3.80;;;;;;;15.69;69.14;100772.80;23866;1159;3126089;-66
2021/06/16 03:05:22;;;;;;;5.20;3.60;;;;;;;15.71;69.21;100765.24;23885;1159;3126458;-67
2021/06/16 03:07:35;;;;;;;7.50;3.80;;;;;;;15.72;68.87;100766.92;23879;1159;3125986;-68
2021/06/16 03:09:47;;;;;;;5.60;3.10;;;;;;;15.70;69.06;100768.19;23894;1159;3126157;-70
2021/06/16 03:11:56;;;;;;;5.20;3.60;;;;;;;15.71;68.84;100776.14;23893;1159;3126765;-70
2021/06/16 03:14:05;;;;;;;5.10;2.90;;;;;;;15.72;68.31;100775.09;23873;1159;3126294;-69
2021/06/16 03:16:13;;;;;;;4.30;2.60;;;;;;;15.77;68.32;100772.56;23888;1159;3126256;-69
2021/06/16 03:18:24;;;;;;;5.50;2.80;;;;;;;15.77;67.98;100774.45;23894;1159;3126323;-68
2021/06/16 03:20:36;;;;;;;6.10;2.60;;;;;;;15.77;68.06;100778.02;23884;1159;3126090;-68
2021/06/16 03:22:45;;;;;;;7.70;2.90;;;;;;;15.83;67.91;100779.05;23910;1160;3126816;-69
2021/06/16 03:24:54;;;;;;;5.60;2.60;;;;;;;15.84;67.77;100783.45;23880;1159;3126380;-70
2021/06/16 03:27:02;;;;;;;7.40;2.80;;;;;;;15.81;67.51;100772.98;23886;1159;3126818;-70
2021/06/16 03:29:11;;;;;;;4.00;2.90;;;;;;;15.88;67.53;100785.53;23906;1159;3126535;-69
2021/06/16 03:31:19;;;;;;;7.30;2.80;;;;;;;15.92;67.48;100788.67;23910;1160;3126666;-69
2021/06/16 03:33:28;;;;;;;4.50;2.50;;;;;;;15.88;67.17;100790.98;23888;1159;3126672;-70
2021/06/16 03:35:37;;;;;;;4.60;2.30;;;;;;;15.86;67.14;100790.36;23882;1159;3126237;-70
2021/06/16 03:37:46;;;;;;;6.30;2.60;;;;;;;15.87;67.28;100786.59;23886;1160;3125403;-68
2021/06/16 03:39:56;;;;;;;7.10;2.50;;;;;;;15.93;67.23;100784.91;23885;1159;3126125;-68
2021/06/16 03:42:05;;;;;;;7.20;2.40;;;;;;;15.98;67.11;100792.42;23908;1159;3126138;-68
2021/06/16 03:44:14;;;;;;;6.50;2.30;;;;;;;16.01;67.20;100797.45;23907;1159;3126720;-70
2021/06/16 03:46:23;;;;;;;4.40;2.40;;;;;;;16.03;66.88;100804.36;23892;1159;3126032;-70
2021/06/16 03:48:32;;;;;;;4.30;2.30;;;;;;;16.01;66.75;100809.19;23864;1159;3126814;-70
2021/06/16 03:50:41;;;;;;;4.10;2.40;;;;;;;16.01;67.01;100811.08;23876;1159;3126204;-70
2021/06/16 03:52:48;;;;;;;6.40;3.20;;;;;;;16.00;66.78;100814.84;23876;1158;3126547;-68
2021/06/16 03:54:56;;;;;;;6.40;3.20;;;;;;;16.02;66.78;100816.30;22356;1159;4029820;-68
2021/06/16 03:57:05;;;;;;;5.10;2.10;;;;;;;16.02;67.08;100823.63;23889;1159;3125885;-68
2021/06/16 03:59:15;;;;;;;4.60;2.10;;;;;;;16.02;66.79;100827.20;23892;1159;3125961;-70
2021/06/16 04:01:26;;;;;;;3.60;2.10;;;;;;;16.02;66.71;100820.91;23883;1159;3126243;-70
2021/06/16 04:03:33;;;;;;;5.10;2.30;;;;;;;16.05;66.90;100831.38;23905;1159;3126900;-68
2021/06/16 04:05:41;;;;;;;5.40;2.50;;;;;;;16.07;66.96;100821.94;23903;1160;3126128;-68
2021/06/16 04:07:53;;;;;;;5.10;2.20;;;;;;;16.12;66.94;100826.77;23887;1159;3126772;-67
2021/06/16 04:10:01;;;;;;;4.90;2.30;;;;;;;16.14;67.04;100817.31;23900;1159;3126855;-67
2021/06/16 04:12:12;;;;;;;4.60;2.00;;;;;;;16.17;66.67;100819.61;23895;1159;3127285;-66
2021/06/16 04:14:21;;;;;;;4.30;2.40;;;;;;;16.29;66.65;100817.02;23884;1159;3126249;-66
2021/06/16 04:16:29;;;;;;;6.10;2.20;;;;;;;16.36;66.60;100817.84;23893;1160;3127209;-66
2021/06/16 04:18:39;;;;;;;8.10;2.60;;;;;;;16.48;66.29;100819.66;23905;1159;3125978;-69
2021/06/16 04:20:49;;;;;;;7.20;2.30;;;;;;;16.62;66.38;100812.28;23892;1159;3126317;-70
2021/06/16 04:22:57;;;;;;;7.80;2.40;;;;;;;16.72;65.90;100811.81;23875;1160;3125521;-67
2021/06/16 04:25:11;;;;;;;9.30;2.50;;;;;;;16.72;66.06;100812.66;23895;1159;3126660;-67
2021/06/16 04:27:19;;;;;;;12.00;3.40;;;;;;;16.75;65.92;100812.23;23895;1159;3128697;-67
2021/06/16 04:29:26;;;;;;;8.00;2.40;;;;;;;16.87;65.50;100813.17;23908;1159;3126199;-67
2021/06/16 04:31:37;;;;;;;8.00;2.40;;;;;;;17.01;65.59;100811.19;22366;1159;4026395;-67
2021/06/16 04:33:45;;;;;;;7.50;2.50;;;;;;;17.16;65.78;100808.15;23898;1159;3126039;-69
2021/06/16 04:35:52;;;;;;;7.50;2.50;;;;;;;17.41;65.59;100803.53;22380;1160;4026066;-70
2021/06/16 04:38:00;;;;;;;9.30;2.70;;;;;;;17.55;64.99;100803.19;23912;1159;3125561;-67
2021/06/16 04:40:10;;;;;;;5.40;2.90;;;;;;;17.77;64.76;100806.36;23904;1158;3126354;-67
2021/06/16 04:42:18;;;;;;;5.10;2.10;;;;;;;17.91;64.46;100802.39;23864;1159;3125945;-67
2021/06/16 04:44:28;;;;;;;5.00;2.30;;;;;;;17.98;63.61;100805.06;23890;1158;3125331;-70
2021/06/16 04:46:36;;;;;;;5.60;2.40;;;;;;;18.01;63.60;100810.92;23878;1160;3126904;-69
2021/06/16 04:48:45;;;;;;;7.80;3.20;;;;;;;18.04;63.37;100807.73;23888;1159;3126074;-69
2021/06/16 04:50:55;;;;;;;7.70;3.00;;;;;;;18.19;63.12;100805.44;23873;1159;3125830;-70
2021/06/16 04:53:03;;;;;;;17.40;4.20;;;;;;;18.37;62.57;100810.06;23905;1159;3126123;-69
2021/06/16 04:55:14;;;;;;;17.20;4.20;;;;;;;18.56;61.96;100811.73;23877;1159;3126948;-69
2021/06/16 04:57:22;;;;;;;4.30;2.40;;;;;;;18.49;61.45;100807.39;23887;1159;3125844;-69
2021/06/16 04:59:29;;;;;;;12.10;3.70;;;;;;;18.56;61.30;100809.00;23877;1159;3127389;-69
2021/06/16 05:01:38;;;;;;;12.10;3.70;;;;;;;19.66;61.46;100815.69;22359;1159;4026325;-69
2021/06/16 05:03:45;;;;;;;14.40;3.60;;;;;;;20.42;60.25;100818.22;23869;1159;3126912;-69
2021/06/16 05:05:52;;;;;;;14.40;3.60;;;;;;;20.40;59.36;100825.03;22364;1159;4026199;-69
2021/06/16 05:08:03;;;;;;;7.70;2.30;;;;;;;20.92;59.29;100829.35;23886;1159;3126557;-68
2021/06/16 05:10:12;;;;;;;7.90;2.30;;;;;;;21.67;57.59;100823.52;23870;1159;3126729;-65
2021/06/16 05:12:20;;;;;;;5.60;2.50;;;;;;;22.13;55.99;100825.86;23869;1159;3127384;-72
2021/06/16 05:14:28;;;;;;;5.70;2.10;;;;;;;22.57;54.70;100831.36;23875;1159;3126529;-70
2021/06/16 05:16:35;;;;;;;7.00;2.20;;;;;;;23.17;54.35;100821.02;23903;1159;3126369;-73
2021/06/16 05:18:44;;;;;;;4.80;1.80;;;;;;;23.57;52.28;100825.24;23869;1159;3125955;-72
2021/06/16 05:20:52;;;;;;;5.70;1.90;;;;;;;23.77;52.14;100826.20;23867;1160;3125916;-70
2021/06/16 05:23:03;;;;;;;3.50;1.50;;;;;;;23.95;50.96;100822.99;23877;1159;3126553;-71
2021/06/16 05:25:14;;;;;;;5.10;1.80;;;;;;;24.00;49.93;100817.53;23886;1159;3125479;-71
2021/06/16 05:27:21;;;;;;;4.00;1.70;;;;;;;24.11;48.94;100823.13;23881;1158;3126262;-71
2021/06/16 05:29:29;;;;;;;8.40;2.40;;;;;;;24.10;48.12;100835.26;23864;1159;3126195;-71
2021/06/16 05:31:37;;;;;;;9.30;2.80;;;;;;;24.38;48.32;100840.38;23883;1159;3125904;-71
2021/06/16 05:33:45;;;;;;;6.30;2.90;;;;;;;24.88;47.90;100846.13;23869;1159;3126068;-59
2021/06/16 05:35:52;;;;;;;10.90;3.70;;;;;;;24.57;47.03;100841.56;23872;1159;3126842;-59
2021/06/16 05:38:00;;;;;;;8.40;2.60;;;;;;;24.39;47.35;100850.34;23884;1159;3126704;-60
2021/06/16 05:40:10;;;;;;;6.30;2.00;;;;;;;24.37;47.68;100844.23;23873;1159;3126822;-59
2021/06/16 05:42:18;;;;;;;7.90;2.10;;;;;;;24.75;46.02;100843.82;23853;1159;3126637;-60
2021/06/16 05:44:25;;;;;;;4.90;2.00;;;;;;;25.39;46.40;100835.11;23860;1159;3126890;-70
2021/06/16 05:46:33;;;;;;;5.90;2.60;;;;;;;25.96;45.66;100832.86;23876;1159;3126470;-72
2021/06/16 05:48:41;;;;;;;6.20;1.90;;;;;;;26.60;44.58;100832.12;23871;1159;3126478;-60
2021/06/16 05:50:48;;;;;;;5.50;1.80;;;;;;;26.99;42.56;100827.50;23860;1159;3126670;-60
2021/06/16 05:52:56;;;;;;;4.10;1.90;;;;;;;27.14;42.58;100838.47;23866;1159;3127273;-72
2021/06/16 05:55:03;;;;;;;5.00;1.60;;;;;;;27.43;41.98;100825.53;23849;1159;3126554;-72
2021/06/16 05:57:11;;;;;;;3.20;1.60;;;;;;;27.99;41.26;100836.11;23946;1160;3126448;-73
2021/06/16 05:59:19;;;;;;;5.50;1.70;;;;;;;27.98;39.89;100831.66;23933;1159;3126020;-70
2021/06/16 06:01:26;;;;;;;6.20;1.70;;;;;;;28.51;38.54;100832.47;23945;1159;3126029;-72
2021/06/16 06:03:34;;;;;;;5.10;1.90;;;;;;;28.94;39.20;100838.84;23901;1159;3125543;-59
2021/06/16 06:05:41;;;;;;;4.60;1.70;;;;;;;29.25;37.44;100832.53;23917;1159;3126038;-59
2021/06/16 06:07:52;;;;;;;7.00;1.90;;;;;;;29.48;37.14;100827.16;23930;1160;3125955;-71
2021/06/16 06:10:02;;;;;;;4.80;1.80;;;;;;;29.98;36.90;100829.07;23926;1159;3126573;-71
2021/06/16 06:12:13;;;;;;;2.40;1.50;;;;;;;30.14;35.57;100824.84;23918;1159;3126809;-72
2021/06/16 06:14:21;;;;;;;4.00;1.70;;;;;;;30.09;35.82;100830.52;23953;1158;3128777;-72
2021/06/16 06:16:32;;;;;;;5.20;2.10;;;;;;;30.15;35.37;100832.09;23932;1159;3126691;-72
2021/06/16 06:18:39;;;;;;;4.40;1.80;;;;;;;30.13;34.77;100833.53;23953;1159;3125972;-59
2021/06/16 06:20:47;;;;;;;3.00;1.40;;;;;;;30.10;34.49;100837.77;23934;1159;3126556;-59
2021/06/16 06:22:56;;;;;;;5.20;2.00;;;;;;;30.17;34.00;100835.38;23907;1159;3126304;-59
2021/06/16 06:25:05;;;;;;;3.70;1.50;;;;;;;30.06;34.34;100841.45;23941;1159;3125892;-59
2021/06/16 06:27:16;;;;;;;4.40;1.50;;;;;;;30.12;34.07;100843.84;23938;1158;3127052;-59
2021/06/16 06:29:26;;;;;;;3.60;1.50;;;;;;;30.23;33.19;100844.47;23922;1159;3126327;-72
2021/06/16 06:31:34;;;;;;;4.70;1.60;;;;;;;29.44;33.34;100845.61;23927;1159;3126235;-73
2021/06/16 06:33:41;;;;;;;2.90;1.60;;;;;;;28.86;33.34;100851.48;23923;1159;3126289;-72
2021/06/16 06:35:49;;;;;;;4.00;1.50;;;;;;;28.13;34.87;100853.73;23919;1159;3125737;-73
2021/06/16 06:37:59;;;;;;;4.10;1.70;;;;;;;27.29;35.31;100846.70;23928;1158;3126294;-60
2021/06/16 06:40:09;;;;;;;2.80;1.20;;;;;;;25.90;36.61;100853.39;23937;1159;3126653;-59
2021/06/16 06:42:20;;;;;;;5.00;1.50;;;;;;;25.31;38.30;100855.02;23939;1159;3126215;-59
2021/06/16 06:44:30;;;;;;;3.70;1.60;;;;;;;24.80;39.43;100862.41;23924;1159;3126496;-73
2021/06/16 06:46:37;;;;;;;5.10;1.70;;;;;;;24.20;40.07;100858.23;23928;1159;3125570;-73
2021/06/16 06:48:45;;;;;;;4.40;2.00;;;;;;;24.23;40.54;100859.66;23939;1159;3126426;-59
2021/06/16 06:50:53;;;;;;;6.40;1.50;;;;;;;25.13;40.57;100868.27;23932;1159;3126183;-62
2021/06/16 06:53:01;;;;;;;6.30;2.00;;;;;;;26.04;39.55;100862.75;23946;1159;3125723;-75
2021/06/16 06:55:12;;;;;;;5.40;1.50;;;;;;;26.69;39.12;100847.05;23923;1159;3126925;-73
2021/06/16 06:57:19;;;;;;;26.10;19.90;;;;;;;27.47;38.19;100853.51;23934;1159;3126634;-72
2021/06/16 06:59:27;;;;;;;4.40;2.20;;;;;;;27.89;37.45;100855.63;23913;1159;3126262;-59
2021/06/16 07:01:37;;;;;;;4.70;2.00;;;;;;;28.62;36.52;100850.67;23930;1159;3126300;-60
2021/06/16 07:03:44;;;;;;;3.70;1.60;;;;;;;28.77;35.78;100855.22;23924;1159;3126953;-60
2021/06/16 07:05:52;;;;;;;3.90;1.50;;;;;;;29.21;35.21;100856.55;23935;1159;3127068;-60
2021/06/16 07:07:59;;;;;;;4.60;1.70;;;;;;;29.95;34.81;100859.50;23913;1159;3126419;-72
2021/06/16 07:10:09;;;;;;;4.00;1.60;;;;;;;30.15;34.01;100856.34;23907;1159;3126632;-71
2021/06/16 07:12:18;;;;;;;3.90;1.80;;;;;;;30.60;34.19;100855.42;23920;1160;3126387;-72
2021/06/16 07:14:26;;;;;;;4.20;1.90;;;;;;;30.69;32.41;100847.98;23912;1159;3126724;-59
2021/06/16 07:16:33;;;;;;;7.00;1.80;;;;;;;30.48;33.74;100846.78;23928;1159;3126861;-60
2021/06/16 07:18:41;;;;;;;4.30;1.70;;;;;;;31.04;33.21;100851.16;23908;1159;3126343;-72
2021/06/16 07:20:48;;;;;;;4.50;1.60;;;;;;;31.15;32.34;100852.58;23928;1159;3125983;-72
2021/06/16 07:22:56;;;;;;;3.10;1.60;;;;;;;31.04;32.48;100853.95;23935;1159;3126484;-60
2021/06/16 07:25:04;;;;;;;4.70;1.40;;;;;;;31.26;32.17;100854.78;23919;1158;3126687;-59
2021/06/16 07:27:12;;;;;;;5.00;2.00;;;;;;;31.37;31.80;100849.81;23925;1159;3125642;-60
2021/06/16 07:29:20;;;;;;;4.80;1.70;;;;;;;31.38;31.30;100845.85;23896;1159;3126449;-72
2021/06/16 07:31:27;;;;;;;4.90;1.80;;;;;;;31.70;31.66;100844.81;23916;1159;3126966;-74
2021/06/16 07:33:36;;;;;;;5.70;1.60;;;;;;;31.43;31.64;100842.92;23915;1160;3125615;-71
2021/06/16 07:35:44;;;;;;;6.50;1.80;;;;;;;31.20;31.42;100846.87;23895;1159;3126867;-72
2021/06/16 07:37:55;;;;;;;4.30;1.80;;;;;;;31.13;31.52;100846.46;23930;1159;3126835;-72
2021/06/16 07:40:03;;;;;;;3.60;1.50;;;;;;;31.47;30.14;100853.20;23916;1159;3126598;-72
2021/06/16 07:42:13;;;;;;;3.40;1.50;;;;;;;31.18;30.68;100852.75;23897;1159;3126275;-58
2021/06/16 07:44:21;;;;;;;2.50;1.40;;;;;;;32.15;30.53;100849.19;23926;1159;3126803;-60
2021/06/16 07:46:29;;;;;;;4.60;1.90;;;;;;;31.95;30.75;100849.70;23931;1159;3126803;-60
2021/06/16 07:48:36;;;;;;;4.00;1.70;;;;;;;31.68;29.21;100850.70;23895;1159;3126702;-57
2021/06/16 07:50:44;;;;;;;3.30;1.40;;;;;;;31.33;29.28;100854.36;23915;1159;3126708;-58
2021/06/16 07:52:54;;;;;;;5.70;1.80;;;;;;;31.39;30.41;100848.34;23917;1159;3126610;-61
2021/06/16 07:55:02;;;;;;;6.90;1.60;;;;;;;31.35;29.58;100857.66;23928;1159;3126313;-61
2021/06/16 07:57:10;;;;;;;4.10;1.60;;;;;;;31.18;29.53;100854.74;23928;1159;3126563;-63
2021/06/16 07:59:17;;;;;;;7.20;1.80;;;;;;;30.98;29.49;100852.41;23890;1160;3126355;-65
2021/06/16 08:01:24;;;;;;;6.20;1.70;;;;;;;30.96;29.37;100852.71;23906;1159;3126223;-71
2021/06/16 08:03:32;;;;;;;3.80;1.70;;;;;;;31.12;29.94;100859.62;23924;1159;3126371;-71
2021/06/16 08:05:39;;;;;;;4.70;1.50;;;;;;;30.83;28.94;100856.33;23912;1159;3126281;-74
2021/06/16 08:07:50;;;;;;;3.70;1.80;;;;;;;30.85;29.99;100854.88;23918;1159;3126704;-72
2021/06/16 08:09:57;;;;;;;3.60;1.50;;;;;;;30.85;30.25;100852.09;23926;1159;3126409;-73
2021/06/16 08:12:07;;;;;;;3.40;1.40;;;;;;;30.73;29.83;100857.39;23916;1159;3126740;-73
2021/06/16 08:14:15;;;;;;;3.50;1.30;;;;;;;30.81;29.37;100851.08;23930;1159;3126205;-68
2021/06/16 08:16:22;;;;;;;3.70;1.50;;;;;;;31.40;28.53;100851.94;23935;1160;3127038;-68
2021/06/16 08:18:29;;;;;;;3.60;1.20;;;;;;;31.93;27.81;100860.38;23918;1159;3126863;-68
2021/06/16 08:20:37;;;;;;;5.00;1.40;;;;;;;32.20;28.17;100856.59;23919;1159;3125820;-65
2021/06/16 08:22:47;;;;;;;4.60;1.80;;;;;;;32.36;28.24;100855.84;23901;1159;3128272;-65
2021/06/16 08:24:56;;;;;;;5.20;1.70;;;;;;;32.00;28.07;100856.01;23915;1159;3126845;-64
2021/06/16 08:27:07;;;;;;;3.40;1.30;;;;;;;31.79;27.77;100859.64;23898;1159;3126058;-64
2021/06/16 08:29:15;;;;;;;5.00;2.00;;;;;;;31.39;29.00;100855.89;23938;1159;3125801;-66
2021/06/16 08:31:23;;;;;;;3.10;1.40;;;;;;;31.57;29.27;100860.48;23871;1158;3125744;-65
2021/06/16 08:33:30;;;;;;;3.00;1.50;;;;;;;31.69;28.58;100863.54;23905;1160;3127203;-64
2021/06/16 08:35:38;;;;;;;5.20;1.80;;;;;;;31.69;27.83;100863.54;23900;1159;3126631;-64
2021/06/16 08:37:49;;;;;;;3.00;1.30;;;;;;;31.52;27.22;100855.86;23890;1159;3126592;-65
2021/06/16 08:39:56;;;;;;;4.60;1.20;;;;;;;31.59;27.19;100860.98;23900;1159;3126791;-64
2021/06/16 08:42:05;;;;;;;4.70;1.60;;;;;;;31.60;26.05;100856.23;23903;1159;3126419;-64
2021/06/16 08:44:15;;;;;;;4.30;1.50;;;;;;;31.51;26.97;100858.95;23903;1158;3126269;-66
2021/06/16 08:46:23;;;;;;;4.40;1.30;;;;;;;31.46;26.59;100864.64;23899;1159;3126297;-67
2021/06/16 08:48:31;;;;;;;4.50;1.30;;;;;;;31.27;26.60;100869.58;23911;1160;3129565;-67
2021/06/16 08:50:39;;;;;;;4.30;1.30;;;;;;;31.44;27.18;100869.73;23890;1159;3126702;-60
2021/06/16 08:52:47;;;;;;;4.20;1.30;;;;;;;31.84;27.05;100862.30;23924;1159;3127004;-59
2021/06/16 08:54:56;;;;;;;1.90;0.90;;;;;;;31.76;27.09;100872.28;23876;1160;3126284;-59
2021/06/16 08:57:04;;;;;;;4.90;1.30;;;;;;;31.73;27.46;100872.12;23907;1159;3126713;-59
2021/06/16 08:59:11;;;;;;;2.90;1.10;;;;;;;31.68;27.51;100875.02;23929;1159;3126051;-59
2021/06/16 09:01:22;;;;;;;2.10;1.10;;;;;;;31.53;27.23;100877.05;23900;1159;3126783;-60
2021/06/16 09:03:31;;;;;;;4.20;1.60;;;;;;;31.71;27.53;100875.21;23923;1159;3126988;-59
2021/06/16 09:05:43;;;;;;;3.10;1.40;;;;;;;31.50;27.68;100883.30;23893;1159;3126710;-59
2021/06/16 09:07:50;;;;;;;3.10;1.50;;;;;;;31.37;27.54;100880.52;23902;1159;3127007;-58
2021/06/16 09:10:13;;;;;;;3.80;1.50;;;;;;;31.28;27.40;100886.03;23933;1160;3126631;-59
2021/06/16 09:12:34;;;;;;;2.40;1.30;;;;;;;30.90;27.35;100882.66;23917;1159;3126944;-59
2021/06/16 09:14:53;;;;;;;5.00;1.40;;;;;;;30.45;27.58;100874.45;23909;1159;3126148;-66
2021/06/16 09:17:05;;;;;;;4.90;1.50;;;;;;;30.56;28.40;100875.89;23893;1159;3126221;-64
2021/06/16 09:19:23;;;;;;;5.30;1.20;;;;;;;30.23;28.19;100884.33;23915;1159;3126445;-69
2021/06/16 09:21:42;;;;;;;2.80;1.50;;;;;;;29.83;29.03;100884.25;23924;1160;3127177;-69
2021/06/16 09:23:56;;;;;;;4.40;1.40;;;;;;;29.55;29.21;100877.73;23904;1159;3126433;-64
2021/06/16 09:26:13;;;;;;;3.40;1.40;;;;;;;29.62;29.04;100880.94;23939;1160;3126253;-58
2021/06/16 09:28:33;;;;;;;3.40;1.40;;;;;;;29.25;29.04;100876.27;22395;1159;4026527;-60
2021/06/16 09:30:44;;;;;;;4.50;1.50;;;;;;;28.93;30.05;100890.87;23916;1159;3125942;-61
2021/06/16 09:32:56;;;;;;;5.10;1.50;;;;;;;28.76;31.01;100895.30;23915;1159;3125920;-59
2021/06/16 09:35:24;;;;;;;6.10;2.00;;;;;;;28.88;31.28;100890.95;23927;1159;3126959;-58
2021/06/16 09:37:41;;;;;;;3.20;1.60;;;;;;;28.83;31.43;100884.63;23911;1159;3128553;-57
2021/06/16 09:40:02;;;;;;;4.30;1.60;;;;;;;28.66;31.27;100885.95;23929;1158;3127088;-57
2021/06/16 09:42:14;;;;;;;4.20;1.40;;;;;;;28.53;32.21;100878.30;23935;1158;3126404;-57
2021/06/16 09:44:44;;;;;;;4.80;1.60;;;;;;;28.25;31.71;100879.18;23932;1158;3126384;-59
2021/06/16 09:47:20;;;;;;;6.20;1.90;;;;;;;27.82;32.25;100875.44;23900;1159;3126342;-59
2021/06/16 09:49:53;;;;;;;3.90;1.80;;;;;;;28.14;33.59;100882.36;23922;1159;3125856;-58
2021/06/16 09:52:01;;;;;;;5.30;2.20;;;;;;;28.22;32.91;100876.16;23957;1160;3126508;-59